sensor_id;sensor_type;location;lat;lon;timestamp;P1;durP1;ratioP1;P2;durP2;ratioP2
55112;SDS011;41006;50.920;3.456;2023-07-20T00:00:02;22.02;;;13.02;;
55112;SDS011;41006;50.920;3.456;2023-07-20T00:00:32;17.52;;;11.77;;
55112;SDS011;41006;50.920;3.456;2023-07-20T00:01:02;18.58;;;12.85;;
55112;SDS011;41006;50.920;3.456;2023-07-20T00:01:33;19.48;;;13.55;;
55112;SDS011;41006;50.920;3.456;2023-07-20T00:02:05;15.15;;;11.82;;
55112;SDS011;41006;50.920;3.456;2023-07-20T00:02:37;21.35;;;12.27;;
55112;SDS011;41006;50.920;3.456;2023-07-20T00:03:11;19.23;;;12.52;;
55112;SDS011;41006;50.920;3.456;2023-07-20T00:03:46;19.85;;;13.20;;
55112;SDS011;41006;50.920;3.456;2023-07-20T00:04:26;19.52;;;12.57;;
55112;SDS011;41006;50.920;3.456;2023-07-20T00:04:57;18.73;;;12.85;;
55112;SDS011;41006;50.920;3.456;2023-07-20T00:05:27;17.33;;;13.07;;
55112;SDS011;41006;50.920;3.456;2023-07-20T00:06:02;19.33;;;13.10;;
55112;SDS011;41006;50.920;3.456;2023-07-20T00:06:34;19.20;;;13.23;;
55112;SDS011;41006;50.920;3.456;2023-07-20T00:07:04;19.08;;;13.10;;
55112;SDS011;41006;50.920;3.456;2023-07-20T00:07:37;19.63;;;13.05;;
55112;SDS011;41006;50.920;3.456;2023-07-20T00:08:07;20.48;;;12.98;;
55112;SDS011;41006;50.920;3.456;2023-07-20T00:08:40;17.48;;;13.35;;
55112;SDS011;41006;50.920;3.456;2023-07-20T00:09:12;19.27;;;13.45;;
55112;SDS011;41006;50.920;3.456;2023-07-20T00:09:43;27.73;;;13.88;;
55112;SDS011;41006;50.920;3.456;2023-07-20T00:10:15;23.80;;;14.00;;
55112;SDS011;41006;50.920;3.456;2023-07-20T00:10:48;21.80;;;13.77;;
55112;SDS011;41006;50.920;3.456;2023-07-20T00:11:18;22.30;;;13.45;;
55112;SDS011;41006;50.920;3.456;2023-07-20T00:11:52;17.33;;;13.63;;
55112;SDS011;41006;50.920;3.456;2023-07-20T00:12:26;21.95;;;14.18;;
55112;SDS011;41006;50.920;3.456;2023-07-20T00:12:56;18.40;;;13.77;;
55112;SDS011;41006;50.920;3.456;2023-07-20T00:13:29;21.67;;;13.65;;
55112;SDS011;41006;50.920;3.456;2023-07-20T00:14:05;17.38;;;13.45;;
55112;SDS011;41006;50.920;3.456;2023-07-20T00:14:38;19.08;;;13.63;;
55112;SDS011;41006;50.920;3.456;2023-07-20T00:15:10;18.85;;;14.27;;
55112;SDS011;41006;50.920;3.456;2023-07-20T00:15:43;18.63;;;13.68;;
55112;SDS011;41006;50.920;3.456;2023-07-20T00:16:13;22.20;;;14.27;;
55112;SDS011;41006;50.920;3.456;2023-07-20T00:16:47;27.85;;;14.55;;
55112;SDS011;41006;50.920;3.456;2023-07-20T00:17:25;17.88;;;14.20;;
55112;SDS011;41006;50.920;3.456;2023-07-20T00:17:58;18.00;;;14.38;;
55112;SDS011;41006;50.920;3.456;2023-07-20T00:18:31;17.73;;;13.73;;
55112;SDS011;41006;50.920;3.456;2023-07-20T00:19:01;18.30;;;13.52;;
55112;SDS011;41006;50.920;3.456;2023-07-20T00:19:31;20.00;;;14.55;;
55112;SDS011;41006;50.920;3.456;2023-07-20T00:20:05;24.63;;;15.07;;
55112;SDS011;41006;50.920;3.456;2023-07-20T00:20:39;18.27;;;13.57;;
55112;SDS011;41006;50.920;3.456;2023-07-20T00:21:11;20.10;;;14.48;;
55112;SDS011;41006;50.920;3.456;2023-07-20T00:21:42;24.30;;;14.90;;
55112;SDS011;41006;50.920;3.456;2023-07-20T00:22:12;18.02;;;13.32;;
55112;SDS011;41006;50.920;3.456;2023-07-20T00:22:45;21.48;;;14.02;;
55112;SDS011;41006;50.920;3.456;2023-07-20T00:23:15;17.38;;;14.20;;
55112;SDS011;41006;50.920;3.456;2023-07-20T00:23:50;21.85;;;15.02;;
55112;SDS011;41006;50.920;3.456;2023-07-20T00:24:21;24.35;;;15.05;;
55112;SDS011;41006;50.920;3.456;2023-07-20T00:24:56;20.27;;;14.43;;
55112;SDS011;41006;50.920;3.456;2023-07-20T00:25:29;19.27;;;13.68;;
55112;SDS011;41006;50.920;3.456;2023-07-20T00:26:02;22.60;;;14.05;;
55112;SDS011;41006;50.920;3.456;2023-07-20T00:26:32;18.55;;;13.75;;
55112;SDS011;41006;50.920;3.456;2023-07-20T00:27:03;18.48;;;14.02;;
55112;SDS011;41006;50.920;3.456;2023-07-20T00:27:36;20.35;;;13.63;;
55112;SDS011;41006;50.920;3.456;2023-07-20T00:28:07;19.50;;;13.75;;
55112;SDS011;41006;50.920;3.456;2023-07-20T00:28:37;20.65;;;13.68;;
55112;SDS011;41006;50.920;3.456;2023-07-20T00:29:13;20.45;;;14.55;;
55112;SDS011;41006;50.920;3.456;2023-07-20T00:29:46;18.88;;;13.73;;
55112;SDS011;41006;50.920;3.456;2023-07-20T00:30:16;24.00;;;13.75;;
55112;SDS011;41006;50.920;3.456;2023-07-20T00:30:47;20.70;;;12.93;;
55112;SDS011;41006;50.920;3.456;2023-07-20T00:31:17;20.50;;;14.02;;
55112;SDS011;41006;50.920;3.456;2023-07-20T00:31:50;21.13;;;14.50;;
55112;SDS011;41006;50.920;3.456;2023-07-20T00:32:20;29.80;;;14.70;;
55112;SDS011;41006;50.920;3.456;2023-07-20T00:32:51;17.85;;;14.82;;
55112;SDS011;41006;50.920;3.456;2023-07-20T00:33:21;20.63;;;14.57;;
55112;SDS011;41006;50.920;3.456;2023-07-20T00:33:54;20.30;;;13.25;;
55112;SDS011;41006;50.920;3.456;2023-07-20T00:34:27;21.38;;;13.98;;
55112;SDS011;41006;50.920;3.456;2023-07-20T00:34:57;18.90;;;13.80;;
55112;SDS011;41006;50.920;3.456;2023-07-20T00:35:30;23.30;;;14.30;;
55112;SDS011;41006;50.920;3.456;2023-07-20T00:36:03;21.02;;;14.18;;
55112;SDS011;41006;50.920;3.456;2023-07-20T00:36:34;23.15;;;14.27;;
55112;SDS011;41006;50.920;3.456;2023-07-20T00:37:04;22.30;;;14.30;;
55112;SDS011;41006;50.920;3.456;2023-07-20T00:37:39;22.17;;;15.07;;
55112;SDS011;41006;50.920;3.456;2023-07-20T00:38:12;19.10;;;14.70;;
55112;SDS011;41006;50.920;3.456;2023-07-20T00:38:42;23.55;;;15.65;;
55112;SDS011;41006;50.920;3.456;2023-07-20T00:39:12;20.25;;;15.50;;
55112;SDS011;41006;50.920;3.456;2023-07-20T00:39:43;21.20;;;14.68;;
55112;SDS011;41006;50.920;3.456;2023-07-20T00:40:15;18.33;;;14.57;;
55112;SDS011;41006;50.920;3.456;2023-07-20T00:40:48;23.45;;;14.93;;
55112;SDS011;41006;50.920;3.456;2023-07-20T00:41:19;21.13;;;15.25;;
55112;SDS011;41006;50.920;3.456;2023-07-20T00:41:49;21.10;;;15.27;;
55112;SDS011;41006;50.920;3.456;2023-07-20T00:42:20;25.55;;;16.48;;
55112;SDS011;41006;50.920;3.456;2023-07-20T00:42:52;24.17;;;16.52;;
55112;SDS011;41006;50.920;3.456;2023-07-20T00:43:25;33.97;;;16.73;;
55112;SDS011;41006;50.920;3.456;2023-07-20T00:44:00;19.00;;;15.20;;
55112;SDS011;41006;50.920;3.456;2023-07-20T00:44:31;23.02;;;15.50;;
55112;SDS011;41006;50.920;3.456;2023-07-20T00:45:03;24.42;;;15.23;;
55112;SDS011;41006;50.920;3.456;2023-07-20T00:45:36;23.75;;;14.77;;
55112;SDS011;41006;50.920;3.456;2023-07-20T00:46:10;20.92;;;15.13;;
55112;SDS011;41006;50.920;3.456;2023-07-20T00:46:45;16.73;;;14.73;;
55112;SDS011;41006;50.920;3.456;2023-07-20T00:47:19;20.80;;;15.52;;
55112;SDS011;41006;50.920;3.456;2023-07-20T00:47:49;17.00;;;14.48;;
55112;SDS011;41006;50.920;3.456;2023-07-20T00:48:21;20.65;;;14.07;;
55112;SDS011;41006;50.920;3.456;2023-07-20T00:48:54;19.92;;;15.48;;
55112;SDS011;41006;50.920;3.456;2023-07-20T00:49:28;19.17;;;14.15;;
55112;SDS011;41006;50.920;3.456;2023-07-20T00:50:04;22.40;;;14.57;;
55112;SDS011;41006;50.920;3.456;2023-07-20T00:50:35;24.63;;;14.93;;
55112;SDS011;41006;50.920;3.456;2023-07-20T00:51:06;26.67;;;14.80;;
55112;SDS011;41006;50.920;3.456;2023-07-20T00:51:37;20.70;;;14.85;;
55112;SDS011;41006;50.920;3.456;2023-07-20T00:52:13;22.38;;;14.90;;
55112;SDS011;41006;50.920;3.456;2023-07-20T00:52:44;25.92;;;15.25;;
55112;SDS011;41006;50.920;3.456;2023-07-20T00:53:17;23.17;;;14.57;;
55112;SDS011;41006;50.920;3.456;2023-07-20T00:53:50;23.17;;;14.85;;
55112;SDS011;41006;50.920;3.456;2023-07-20T00:54:23;20.27;;;14.85;;
55112;SDS011;41006;50.920;3.456;2023-07-20T00:54:53;19.08;;;14.73;;
55112;SDS011;41006;50.920;3.456;2023-07-20T00:55:26;22.48;;;14.77;;
55112;SDS011;41006;50.920;3.456;2023-07-20T00:55:58;23.95;;;15.50;;
55112;SDS011;41006;50.920;3.456;2023-07-20T00:56:28;21.15;;;15.30;;
55112;SDS011;41006;50.920;3.456;2023-07-20T00:57:02;20.73;;;15.40;;
55112;SDS011;41006;50.920;3.456;2023-07-20T00:57:34;21.23;;;15.25;;
55112;SDS011;41006;50.920;3.456;2023-07-20T00:58:06;20.52;;;16.17;;
55112;SDS011;41006;50.920;3.456;2023-07-20T00:58:38;19.48;;;14.23;;
55112;SDS011;41006;50.920;3.456;2023-07-20T00:59:09;24.45;;;14.50;;
55112;SDS011;41006;50.920;3.456;2023-07-20T00:59:44;26.42;;;16.17;;
55112;SDS011;41006;50.920;3.456;2023-07-20T01:00:15;25.42;;;15.35;;
55112;SDS011;41006;50.920;3.456;2023-07-20T01:00:48;27.52;;;15.43;;
55112;SDS011;41006;50.920;3.456;2023-07-20T01:01:21;20.35;;;14.70;;
55112;SDS011;41006;50.920;3.456;2023-07-20T01:01:52;19.95;;;15.35;;
55112;SDS011;41006;50.920;3.456;2023-07-20T01:02:22;19.60;;;15.10;;
55112;SDS011;41006;50.920;3.456;2023-07-20T01:02:55;21.30;;;15.32;;
55112;SDS011;41006;50.920;3.456;2023-07-20T01:03:25;21.77;;;15.73;;
55112;SDS011;41006;50.920;3.456;2023-07-20T01:03:56;19.83;;;15.02;;
55112;SDS011;41006;50.920;3.456;2023-07-20T01:04:26;24.85;;;16.05;;
55112;SDS011;41006;50.920;3.456;2023-07-20T01:05:00;20.15;;;15.38;;
55112;SDS011;41006;50.920;3.456;2023-07-20T01:05:54;23.45;;;15.30;;
55112;SDS011;41006;50.920;3.456;2023-07-20T01:06:34;17.92;;;15.30;;
55112;SDS011;41006;50.920;3.456;2023-07-20T01:07:21;21.30;;;15.95;;
55112;SDS011;41006;50.920;3.456;2023-07-20T01:08:04;23.02;;;15.80;;
55112;SDS011;41006;50.920;3.456;2023-07-20T01:10:33;16.65;;;14.98;;
55112;SDS011;41006;50.920;3.456;2023-07-20T01:11:23;20.00;;;16.15;;
55112;SDS011;41006;50.920;3.456;2023-07-20T01:12:23;23.63;;;16.48;;
55112;SDS011;41006;50.920;3.456;2023-07-20T01:13:00;24.90;;;15.52;;
55112;SDS011;41006;50.920;3.456;2023-07-20T01:13:32;16.55;;;14.27;;
55112;SDS011;41006;50.920;3.456;2023-07-20T01:14:03;23.20;;;15.15;;
55112;SDS011;41006;50.920;3.456;2023-07-20T01:14:36;21.40;;;15.05;;
55112;SDS011;41006;50.920;3.456;2023-07-20T01:15:10;21.58;;;13.85;;
55112;SDS011;41006;50.920;3.456;2023-07-20T01:15:45;21.05;;;14.95;;
55112;SDS011;41006;50.920;3.456;2023-07-20T01:16:20;19.33;;;14.68;;
55112;SDS011;41006;50.920;3.456;2023-07-20T01:16:52;23.00;;;15.77;;
55112;SDS011;41006;50.920;3.456;2023-07-20T01:17:25;19.10;;;16.38;;
55112;SDS011;41006;50.920;3.456;2023-07-20T01:17:55;19.92;;;15.43;;
55112;SDS011;41006;50.920;3.456;2023-07-20T01:18:31;20.52;;;16.42;;
55112;SDS011;41006;50.920;3.456;2023-07-20T01:19:03;19.58;;;15.80;;
55112;SDS011;41006;50.920;3.456;2023-07-20T01:19:36;21.00;;;16.85;;
55112;SDS011;41006;50.920;3.456;2023-07-20T01:20:12;21.90;;;15.60;;
55112;SDS011;41006;50.920;3.456;2023-07-20T01:20:47;25.15;;;16.27;;
55112;SDS011;41006;50.920;3.456;2023-07-20T01:21:27;18.27;;;15.45;;
55112;SDS011;41006;50.920;3.456;2023-07-20T01:27:17;20.23;;;16.08;;
55112;SDS011;41006;50.920;3.456;2023-07-20T01:28:45;22.25;;;16.25;;
55112;SDS011;41006;50.920;3.456;2023-07-20T01:30:46;22.95;;;17.25;;
55112;SDS011;41006;50.920;3.456;2023-07-20T01:31:25;19.42;;;16.10;;
55112;SDS011;41006;50.920;3.456;2023-07-20T01:32:02;22.83;;;17.45;;
55112;SDS011;41006;50.920;3.456;2023-07-20T01:32:37;21.65;;;17.38;;
55112;SDS011;41006;50.920;3.456;2023-07-20T01:33:11;24.13;;;15.45;;
55112;SDS011;41006;50.920;3.456;2023-07-20T01:33:46;18.92;;;16.38;;
55112;SDS011;41006;50.920;3.456;2023-07-20T01:34:18;18.42;;;16.08;;
55112;SDS011;41006;50.920;3.456;2023-07-20T01:34:53;19.58;;;16.98;;
55112;SDS011;41006;50.920;3.456;2023-07-20T01:35:29;20.67;;;16.67;;
55112;SDS011;41006;50.920;3.456;2023-07-20T01:36:01;28.67;;;16.45;;
55112;SDS011;41006;50.920;3.456;2023-07-20T01:36:36;22.17;;;15.98;;
55112;SDS011;41006;50.920;3.456;2023-07-20T01:37:07;25.05;;;16.85;;
55112;SDS011;41006;50.920;3.456;2023-07-20T01:37:41;28.98;;;16.10;;
55112;SDS011;41006;50.920;3.456;2023-07-20T01:38:17;22.10;;;16.67;;
55112;SDS011;41006;50.920;3.456;2023-07-20T01:38:51;22.83;;;16.23;;
55112;SDS011;41006;50.920;3.456;2023-07-20T01:39:22;22.35;;;16.08;;
55112;SDS011;41006;50.920;3.456;2023-07-20T01:39:53;22.88;;;16.75;;
55112;SDS011;41006;50.920;3.456;2023-07-20T01:40:27;18.50;;;16.05;;
55112;SDS011;41006;50.920;3.456;2023-07-20T01:40:58;20.65;;;17.08;;
55112;SDS011;41006;50.920;3.456;2023-07-20T01:41:31;20.73;;;16.50;;
55112;SDS011;41006;50.920;3.456;2023-07-20T01:42:05;22.70;;;15.00;;
55112;SDS011;41006;50.920;3.456;2023-07-20T01:42:36;22.60;;;17.10;;
55112;SDS011;41006;50.920;3.456;2023-07-20T01:43:09;23.70;;;15.73;;
55112;SDS011;41006;50.920;3.456;2023-07-20T01:43:44;18.20;;;15.43;;
55112;SDS011;41006;50.920;3.456;2023-07-20T01:44:16;22.40;;;16.67;;
55112;SDS011;41006;50.920;3.456;2023-07-20T01:44:50;19.17;;;17.27;;
55112;SDS011;41006;50.920;3.456;2023-07-20T01:45:23;18.25;;;15.57;;
55112;SDS011;41006;50.920;3.456;2023-07-20T01:45:56;22.80;;;16.27;;
55112;SDS011;41006;50.920;3.456;2023-07-20T01:46:30;20.40;;;16.05;;
55112;SDS011;41006;50.920;3.456;2023-07-20T01:47:03;22.83;;;16.27;;
55112;SDS011;41006;50.920;3.456;2023-07-20T01:47:34;22.50;;;18.02;;
55112;SDS011;41006;50.920;3.456;2023-07-20T01:48:04;21.15;;;16.83;;
55112;SDS011;41006;50.920;3.456;2023-07-20T01:48:37;19.40;;;17.30;;
55112;SDS011;41006;50.920;3.456;2023-07-20T01:49:07;21.70;;;17.13;;
55112;SDS011;41006;50.920;3.456;2023-07-20T01:49:38;21.23;;;18.13;;
55112;SDS011;41006;50.920;3.456;2023-07-20T01:50:14;21.13;;;17.88;;
55112;SDS011;41006;50.920;3.456;2023-07-20T01:50:47;18.48;;;16.63;;
55112;SDS011;41006;50.920;3.456;2023-07-20T01:51:20;18.95;;;17.13;;
55112;SDS011;41006;50.920;3.456;2023-07-20T01:51:50;25.45;;;17.20;;
55112;SDS011;41006;50.920;3.456;2023-07-20T01:52:22;24.63;;;16.65;;
55112;SDS011;41006;50.920;3.456;2023-07-20T01:52:56;21.52;;;16.90;;
55112;SDS011;41006;50.920;3.456;2023-07-20T01:53:28;19.85;;;17.63;;
55112;SDS011;41006;50.920;3.456;2023-07-20T01:53:59;24.15;;;17.80;;
55112;SDS011;41006;50.920;3.456;2023-07-20T01:54:32;21.10;;;18.63;;
55112;SDS011;41006;50.920;3.456;2023-07-20T01:55:08;22.75;;;17.05;;
55112;SDS011;41006;50.920;3.456;2023-07-20T01:55:43;21.92;;;18.42;;
55112;SDS011;41006;50.920;3.456;2023-07-20T01:56:15;20.30;;;17.98;;
55112;SDS011;41006;50.920;3.456;2023-07-20T01:56:49;20.33;;;17.83;;
55112;SDS011;41006;50.920;3.456;2023-07-20T01:57:19;22.70;;;17.65;;
55112;SDS011;41006;50.920;3.456;2023-07-20T01:57:50;20.02;;;17.90;;
55112;SDS011;41006;50.920;3.456;2023-07-20T01:58:27;20.40;;;17.98;;
55112;SDS011;41006;50.920;3.456;2023-07-20T01:58:57;21.73;;;18.15;;
55112;SDS011;41006;50.920;3.456;2023-07-20T01:59:28;19.45;;;17.23;;
55112;SDS011;41006;50.920;3.456;2023-07-20T01:59:58;23.95;;;19.17;;
55112;SDS011;41006;50.920;3.456;2023-07-20T02:00:33;20.40;;;18.20;;
55112;SDS011;41006;50.920;3.456;2023-07-20T02:01:06;22.23;;;17.27;;
55112;SDS011;41006;50.920;3.456;2023-07-20T02:01:36;20.60;;;16.98;;
55112;SDS011;41006;50.920;3.456;2023-07-20T02:02:09;20.13;;;17.70;;
55112;SDS011;41006;50.920;3.456;2023-07-20T02:02:42;21.48;;;18.20;;
55112;SDS011;41006;50.920;3.456;2023-07-20T02:03:17;23.60;;;17.92;;
55112;SDS011;41006;50.920;3.456;2023-07-20T02:03:49;21.58;;;17.33;;
55112;SDS011;41006;50.920;3.456;2023-07-20T02:04:22;24.23;;;16.85;;
55112;SDS011;41006;50.920;3.456;2023-07-20T02:04:52;22.25;;;17.00;;
55112;SDS011;41006;50.920;3.456;2023-07-20T02:05:25;25.98;;;17.77;;
55112;SDS011;41006;50.920;3.456;2023-07-20T02:06:00;22.63;;;17.20;;
55112;SDS011;41006;50.920;3.456;2023-07-20T02:06:33;21.50;;;17.45;;
55112;SDS011;41006;50.920;3.456;2023-07-20T02:07:03;23.75;;;17.20;;
55112;SDS011;41006;50.920;3.456;2023-07-20T02:07:34;21.20;;;17.15;;
55112;SDS011;41006;50.920;3.456;2023-07-20T02:08:04;20.20;;;16.77;;
55112;SDS011;41006;50.920;3.456;2023-07-20T02:08:35;21.48;;;17.55;;
55112;SDS011;41006;50.920;3.456;2023-07-20T02:09:07;27.42;;;17.27;;
55112;SDS011;41006;50.920;3.456;2023-07-20T02:09:38;19.52;;;16.38;;
55112;SDS011;41006;50.920;3.456;2023-07-20T02:10:11;17.83;;;16.00;;
55112;SDS011;41006;50.920;3.456;2023-07-20T02:10:42;25.98;;;16.58;;
55112;SDS011;41006;50.920;3.456;2023-07-20T02:11:20;22.20;;;17.20;;
55112;SDS011;41006;50.920;3.456;2023-07-20T02:11:50;20.30;;;16.35;;
55112;SDS011;41006;50.920;3.456;2023-07-20T02:12:21;18.92;;;16.08;;
55112;SDS011;41006;50.920;3.456;2023-07-20T02:12:51;19.30;;;15.20;;
55112;SDS011;41006;50.920;3.456;2023-07-20T02:13:24;21.15;;;16.02;;
55112;SDS011;41006;50.920;3.456;2023-07-20T02:13:54;20.75;;;16.70;;
55112;SDS011;41006;50.920;3.456;2023-07-20T02:14:25;24.13;;;16.95;;
55112;SDS011;41006;50.920;3.456;2023-07-20T02:14:56;23.73;;;17.17;;
55112;SDS011;41006;50.920;3.456;2023-07-20T02:15:29;18.17;;;16.25;;
55112;SDS011;41006;50.920;3.456;2023-07-20T02:15:59;18.75;;;16.60;;
55112;SDS011;41006;50.920;3.456;2023-07-20T02:16:30;22.52;;;16.80;;
55112;SDS011;41006;50.920;3.456;2023-07-20T02:17:00;19.73;;;16.42;;
55112;SDS011;41006;50.920;3.456;2023-07-20T02:17:33;19.90;;;16.73;;
55112;SDS011;41006;50.920;3.456;2023-07-20T02:18:03;20.02;;;16.65;;
55112;SDS011;41006;50.920;3.456;2023-07-20T02:18:36;18.17;;;16.40;;
55112;SDS011;41006;50.920;3.456;2023-07-20T02:19:09;19.65;;;17.65;;
55112;SDS011;41006;50.920;3.456;2023-07-20T02:19:44;24.05;;;18.52;;
55112;SDS011;41006;50.920;3.456;2023-07-20T02:20:19;20.25;;;18.05;;
55112;SDS011;41006;50.920;3.456;2023-07-20T02:20:53;24.52;;;17.77;;
55112;SDS011;41006;50.920;3.456;2023-07-20T02:21:26;19.42;;;17.40;;
55112;SDS011;41006;50.920;3.456;2023-07-20T02:21:57;20.33;;;18.02;;
55112;SDS011;41006;50.920;3.456;2023-07-20T02:22:28;19.35;;;17.52;;
55112;SDS011;41006;50.920;3.456;2023-07-20T02:22:58;22.98;;;17.85;;
55112;SDS011;41006;50.920;3.456;2023-07-20T02:23:31;20.98;;;17.25;;
55112;SDS011;41006;50.920;3.456;2023-07-20T02:24:01;20.38;;;17.23;;
55112;SDS011;41006;50.920;3.456;2023-07-20T02:24:34;21.17;;;18.67;;
55112;SDS011;41006;50.920;3.456;2023-07-20T02:25:07;20.52;;;17.60;;
55112;SDS011;41006;50.920;3.456;2023-07-20T02:25:38;21.08;;;18.48;;
55112;SDS011;41006;50.920;3.456;2023-07-20T02:26:09;22.10;;;17.10;;
55112;SDS011;41006;50.920;3.456;2023-07-20T02:26:42;20.60;;;18.40;;
55112;SDS011;41006;50.920;3.456;2023-07-20T02:27:12;20.08;;;17.40;;
55112;SDS011;41006;50.920;3.456;2023-07-20T02:27:45;19.73;;;16.25;;
55112;SDS011;41006;50.920;3.456;2023-07-20T02:28:18;19.08;;;16.45;;
55112;SDS011;41006;50.920;3.456;2023-07-20T02:28:51;18.58;;;16.77;;
55112;SDS011;41006;50.920;3.456;2023-07-20T02:29:25;24.48;;;17.00;;
55112;SDS011;41006;50.920;3.456;2023-07-20T02:29:58;19.27;;;16.55;;
55112;SDS011;41006;50.920;3.456;2023-07-20T02:30:31;19.02;;;17.00;;
55112;SDS011;41006;50.920;3.456;2023-07-20T02:31:01;23.80;;;16.75;;
55112;SDS011;41006;50.920;3.456;2023-07-20T02:31:34;18.08;;;16.42;;
55112;SDS011;41006;50.920;3.456;2023-07-20T02:32:08;20.58;;;16.40;;
55112;SDS011;41006;50.920;3.456;2023-07-20T02:32:39;19.92;;;15.70;;
55112;SDS011;41006;50.920;3.456;2023-07-20T02:33:15;21.80;;;16.08;;
55112;SDS011;41006;50.920;3.456;2023-07-20T02:33:45;17.98;;;15.73;;
55112;SDS011;41006;50.920;3.456;2023-07-20T02:34:18;16.35;;;14.75;;
55112;SDS011;41006;50.920;3.456;2023-07-20T02:34:54;19.15;;;14.93;;
55112;SDS011;41006;50.920;3.456;2023-07-20T02:35:29;19.02;;;15.32;;
55112;SDS011;41006;50.920;3.456;2023-07-20T02:36:01;17.67;;;15.73;;
55112;SDS011;41006;50.920;3.456;2023-07-20T02:36:35;18.80;;;16.13;;
55112;SDS011;41006;50.920;3.456;2023-07-20T02:37:05;20.67;;;15.63;;
55112;SDS011;41006;50.920;3.456;2023-07-20T02:37:38;18.27;;;15.43;;
55112;SDS011;41006;50.920;3.456;2023-07-20T02:38:13;20.38;;;15.50;;
55112;SDS011;41006;50.920;3.456;2023-07-20T02:38:49;19.63;;;15.48;;
55112;SDS011;41006;50.920;3.456;2023-07-20T02:39:20;18.13;;;15.90;;
55112;SDS011;41006;50.920;3.456;2023-07-20T02:39:52;17.42;;;15.27;;
55112;SDS011;41006;50.920;3.456;2023-07-20T02:40:23;17.95;;;15.50;;
55112;SDS011;41006;50.920;3.456;2023-07-20T02:40:53;18.15;;;15.55;;
55112;SDS011;41006;50.920;3.456;2023-07-20T02:41:26;21.63;;;15.95;;
55112;SDS011;41006;50.920;3.456;2023-07-20T02:42:04;18.90;;;16.17;;
55112;SDS011;41006;50.920;3.456;2023-07-20T02:42:35;17.73;;;15.02;;
55112;SDS011;41006;50.920;3.456;2023-07-20T02:43:08;18.55;;;16.58;;
55112;SDS011;41006;50.920;3.456;2023-07-20T02:43:39;17.48;;;15.10;;
55112;SDS011;41006;50.920;3.456;2023-07-20T02:44:09;18.52;;;16.75;;
55112;SDS011;41006;50.920;3.456;2023-07-20T02:44:42;19.73;;;16.17;;
55112;SDS011;41006;50.920;3.456;2023-07-20T02:45:15;20.63;;;16.70;;
55112;SDS011;41006;50.920;3.456;2023-07-20T02:45:50;19.42;;;16.92;;
55112;SDS011;41006;50.920;3.456;2023-07-20T02:46:20;21.88;;;16.95;;
55112;SDS011;41006;50.920;3.456;2023-07-20T02:46:51;22.52;;;16.52;;
55112;SDS011;41006;50.920;3.456;2023-07-20T02:47:23;18.40;;;15.77;;
55112;SDS011;41006;50.920;3.456;2023-07-20T02:47:54;18.10;;;15.60;;
55112;SDS011;41006;50.920;3.456;2023-07-20T02:48:24;16.95;;;15.07;;
55112;SDS011;41006;50.920;3.456;2023-07-20T02:48:54;18.08;;;15.98;;
55112;SDS011;41006;50.920;3.456;2023-07-20T02:49:29;16.42;;;14.82;;
55112;SDS011;41006;50.920;3.456;2023-07-20T02:50:02;19.17;;;15.90;;
55112;SDS011;41006;50.920;3.456;2023-07-20T02:50:33;20.88;;;14.68;;
55112;SDS011;41006;50.920;3.456;2023-07-20T02:51:07;19.00;;;14.35;;
55112;SDS011;41006;50.920;3.456;2023-07-20T02:51:44;19.35;;;15.90;;
55112;SDS011;41006;50.920;3.456;2023-07-20T02:52:15;17.35;;;14.63;;
55112;SDS011;41006;50.920;3.456;2023-07-20T02:52:50;19.05;;;15.82;;
55112;SDS011;41006;50.920;3.456;2023-07-20T02:53:23;21.45;;;16.38;;
55112;SDS011;41006;50.920;3.456;2023-07-20T02:53:56;20.42;;;15.63;;
55112;SDS011;41006;50.920;3.456;2023-07-20T02:54:29;17.77;;;15.93;;
55112;SDS011;41006;50.920;3.456;2023-07-20T02:55:00;16.75;;;14.80;;
55112;SDS011;41006;50.920;3.456;2023-07-20T02:55:33;17.23;;;15.60;;
55112;SDS011;41006;50.920;3.456;2023-07-20T02:56:04;19.00;;;16.00;;
55112;SDS011;41006;50.920;3.456;2023-07-20T02:56:34;17.73;;;15.82;;
55112;SDS011;41006;50.920;3.456;2023-07-20T02:57:07;21.08;;;15.75;;
55112;SDS011;41006;50.920;3.456;2023-07-20T02:57:37;17.85;;;15.95;;
55112;SDS011;41006;50.920;3.456;2023-07-20T02:58:15;20.02;;;16.60;;
55112;SDS011;41006;50.920;3.456;2023-07-20T02:58:45;19.13;;;15.57;;
55112;SDS011;41006;50.920;3.456;2023-07-20T02:59:20;18.95;;;15.85;;
55112;SDS011;41006;50.920;3.456;2023-07-20T02:59:53;18.27;;;15.70;;
55112;SDS011;41006;50.920;3.456;2023-07-20T03:00:26;20.77;;;16.05;;
55112;SDS011;41006;50.920;3.456;2023-07-20T03:00:57;17.75;;;15.52;;
55112;SDS011;41006;50.920;3.456;2023-07-20T03:01:31;16.80;;;14.68;;
55112;SDS011;41006;50.920;3.456;2023-07-20T03:02:06;17.80;;;15.70;;
55112;SDS011;41006;50.920;3.456;2023-07-20T03:02:39;18.77;;;15.52;;
55112;SDS011;41006;50.920;3.456;2023-07-20T03:03:12;17.50;;;15.90;;
55112;SDS011;41006;50.920;3.456;2023-07-20T03:03:45;21.98;;;16.17;;
55112;SDS011;41006;50.920;3.456;2023-07-20T03:04:16;17.88;;;16.08;;
55112;SDS011;41006;50.920;3.456;2023-07-20T03:04:47;19.42;;;15.82;;
55112;SDS011;41006;50.920;3.456;2023-07-20T03:05:17;17.42;;;15.70;;
55112;SDS011;41006;50.920;3.456;2023-07-20T03:05:52;16.98;;;15.25;;
55112;SDS011;41006;50.920;3.456;2023-07-20T03:06:24;19.70;;;16.13;;
55112;SDS011;41006;50.920;3.456;2023-07-20T03:06:54;18.17;;;16.38;;
55112;SDS011;41006;50.920;3.456;2023-07-20T03:07:26;18.73;;;15.35;;
55112;SDS011;41006;50.920;3.456;2023-07-20T03:07:59;16.63;;;14.88;;
55112;SDS011;41006;50.920;3.456;2023-07-20T03:08:32;18.67;;;15.50;;
55112;SDS011;41006;50.920;3.456;2023-07-20T03:09:03;17.40;;;14.77;;
55112;SDS011;41006;50.920;3.456;2023-07-20T03:09:33;18.10;;;15.40;;
55112;SDS011;41006;50.920;3.456;2023-07-20T03:10:07;18.70;;;15.35;;
55112;SDS011;41006;50.920;3.456;2023-07-20T03:10:44;17.35;;;15.55;;
55112;SDS011;41006;50.920;3.456;2023-07-20T03:11:14;17.50;;;15.32;;
55112;SDS011;41006;50.920;3.456;2023-07-20T03:11:48;16.55;;;14.98;;
55112;SDS011;41006;50.920;3.456;2023-07-20T03:12:19;16.33;;;14.85;;
55112;SDS011;41006;50.920;3.456;2023-07-20T03:12:50;22.65;;;15.63;;
55112;SDS011;41006;50.920;3.456;2023-07-20T03:13:20;20.52;;;15.68;;
55112;SDS011;41006;50.920;3.456;2023-07-20T03:13:50;17.80;;;15.00;;
55112;SDS011;41006;50.920;3.456;2023-07-20T03:14:23;19.35;;;16.02;;
55112;SDS011;41006;50.920;3.456;2023-07-20T03:14:54;17.45;;;15.52;;
55112;SDS011;41006;50.920;3.456;2023-07-20T03:15:24;17.67;;;15.60;;
55112;SDS011;41006;50.920;3.456;2023-07-20T03:15:57;16.55;;;14.50;;
55112;SDS011;41006;50.920;3.456;2023-07-20T03:16:27;18.42;;;16.52;;
55112;SDS011;41006;50.920;3.456;2023-07-20T03:17:05;16.48;;;14.77;;
55112;SDS011;41006;50.920;3.456;2023-07-20T03:17:36;18.02;;;14.80;;
55112;SDS011;41006;50.920;3.456;2023-07-20T03:18:08;16.48;;;14.70;;
55112;SDS011;41006;50.920;3.456;2023-07-20T03:18:41;17.25;;;15.48;;
55112;SDS011;41006;50.920;3.456;2023-07-20T03:19:14;16.88;;;14.52;;
55112;SDS011;41006;50.920;3.456;2023-07-20T03:19:44;18.52;;;15.02;;
55112;SDS011;41006;50.920;3.456;2023-07-20T03:20:17;15.95;;;14.40;;
55112;SDS011;41006;50.920;3.456;2023-07-20T03:20:49;20.45;;;16.35;;